createdAt,value
2023-03-12T00:02:18.053Z,96.40
2023-03-12T00:04:45.289Z,96.60
2023-03-12T00:07:12.670Z,96.90
2023-03-12T00:09:40.347Z,97.00
2023-03-12T00:12:08.245Z,97.10
2023-03-12T00:14:36.522Z,97.30
2023-03-12T00:17:03.886Z,97.30
2023-03-12T00:19:31.205Z,97.40
2023-03-12T00:21:58.499Z,97.80
2023-03-12T00:24:25.708Z,97.90
2023-03-12T00:26:53.006Z,98.00
2023-03-12T00:29:20.220Z,98.10
2023-03-12T00:31:47.944Z,98.30
2023-03-12T00:34:15.265Z,98.30
2023-03-12T00:36:42.495Z,98.10
2023-03-12T00:39:10.825Z,98.20
2023-03-12T00:41:38.091Z,97.90
2023-03-12T00:44:05.361Z,97.80
2023-03-12T00:46:32.602Z,97.80
2023-03-12T00:49:00.011Z,97.60
2023-03-12T00:51:27.355Z,97.70
2023-03-12T00:53:56.388Z,97.60
2023-03-12T00:56:25.157Z,97.70
2023-03-12T00:58:52.580Z,97.60
2023-03-12T01:01:20.190Z,97.70
2023-03-12T01:03:47.876Z,97.90
2023-03-12T01:06:15.129Z,98.10
2023-03-12T01:08:43.002Z,98.60
2023-03-12T01:11:14.983Z,98.60
2023-03-12T01:13:42.238Z,98.90
2023-03-12T01:16:10.081Z,99.00
2023-03-12T01:18:37.373Z,98.80
2023-03-12T01:21:05.724Z,99.30
2023-03-12T01:23:33.174Z,99.10
2023-03-12T01:26:00.457Z,98.80
2023-03-12T01:28:28.061Z,98.90
2023-03-12T01:30:55.416Z,99.30
2023-03-12T01:33:23.181Z,99.00
2023-03-12T01:35:50.707Z,98.70
2023-03-12T01:38:19.302Z,98.60
2023-03-12T01:40:46.806Z,98.60
2023-03-12T01:43:28.396Z,98.60
2023-03-12T01:46:26.378Z,98.40
2023-03-12T01:49:09.276Z,98.30
2023-03-12T01:52:11.225Z,98.30
2023-03-12T01:55:11.232Z,98.40
2023-03-12T01:57:47.888Z,98.70
2023-03-12T02:00:22.419Z,98.80
2023-03-12T02:02:54.442Z,98.90
2023-03-12T02:05:58.817Z,99.10
2023-03-12T02:08:26.568Z,98.80
2023-03-12T02:10:53.942Z,99.60
2023-03-12T02:13:21.380Z,99.90
2023-03-12T02:15:48.799Z,99.90
2023-03-12T02:18:19.269Z,99.90
2023-03-12T02:21:18.391Z,99.90
2023-03-12T02:24:02.171Z,99.80
2023-03-12T02:26:32.386Z,99.70
2023-03-12T02:29:01.670Z,99.50
2023-03-12T02:31:38.660Z,99.40
2023-03-12T02:34:07.544Z,99.50
2023-03-12T02:36:37.113Z,99.40
2023-03-12T02:39:06.139Z,99.90
2023-03-12T02:41:41.788Z,99.90
2023-03-12T02:44:18.195Z,99.80
2023-03-12T02:46:51.703Z,99.70
2023-03-12T02:49:20.912Z,99.90
2023-03-12T02:51:49.449Z,99.90
2023-03-12T02:54:19.698Z,99.90
2023-03-12T02:56:48.721Z,99.90
2023-03-12T02:59:16.651Z,99.90
2023-03-12T03:01:45.479Z,99.90
2023-03-12T03:04:13.925Z,99.90
2023-03-12T03:06:44.320Z,99.90
2023-03-12T03:09:12.361Z,99.90
2023-03-12T03:11:39.759Z,99.90
2023-03-12T03:14:08.799Z,99.90
2023-03-12T03:16:36.644Z,99.90
2023-03-12T03:19:05.040Z,99.90
2023-03-12T03:21:32.966Z,99.90
2023-03-12T03:24:00.372Z,99.90
2023-03-12T03:26:27.644Z,99.90
2023-03-12T03:28:55.503Z,99.90
2023-03-12T03:31:22.857Z,99.90
2023-03-12T03:33:51.588Z,99.90
2023-03-12T03:36:19.413Z,99.90
2023-03-12T03:38:55.150Z,99.90
2023-03-12T03:41:23.410Z,99.90
2023-03-12T03:43:50.995Z,99.90
2023-03-12T03:46:20.924Z,99.90
2023-03-12T03:48:55.794Z,99.90
2023-03-12T03:51:23.760Z,99.90
2023-03-12T03:53:55.930Z,99.90
2023-03-12T03:56:23.480Z,99.90
2023-03-12T03:58:51.195Z,99.90
2023-03-12T04:01:21.355Z,99.90
2023-03-12T04:03:50.226Z,99.90
2023-03-12T04:06:18.029Z,99.90
2023-03-12T04:08:45.284Z,99.90
2023-03-12T04:11:21.298Z,99.90
2023-03-12T04:13:49.296Z,99.90
2023-03-12T04:16:19.241Z,99.90
2023-03-12T04:18:48.180Z,99.90
2023-03-12T04:21:16.958Z,99.90
2023-03-12T04:23:45.188Z,99.90
2023-03-12T04:26:14.139Z,99.90
2023-03-12T04:28:41.491Z,99.90
2023-03-12T04:31:12.765Z,99.90
2023-03-12T04:33:44.729Z,99.90
2023-03-12T04:36:13.312Z,99.90
2023-03-12T04:38:42.753Z,99.90
2023-03-12T04:41:14.120Z,99.90
2023-03-12T04:44:01.701Z,99.90
2023-03-12T04:46:30.142Z,99.90
2023-03-12T04:48:58.476Z,99.90
2023-03-12T04:51:25.767Z,99.90
2023-03-12T04:53:53.048Z,99.90
2023-03-12T04:56:20.438Z,99.90
2023-03-12T04:58:48.085Z,99.90
2023-03-12T05:01:36.664Z,99.90
2023-03-12T05:04:09.519Z,99.90
2023-03-12T05:06:37.539Z,99.90
2023-03-12T05:09:05.202Z,99.90
2023-03-12T05:11:32.836Z,99.90
2023-03-12T05:14:00.095Z,99.90
2023-03-12T05:16:28.642Z,99.90
2023-03-12T05:18:56.430Z,99.90
2023-03-12T05:21:25.723Z,99.90
2023-03-12T05:23:55.404Z,99.90
2023-03-12T05:26:31.921Z,99.90
2023-03-12T05:29:06.775Z,99.90
2023-03-12T05:31:35.586Z,99.90
2023-03-12T05:34:05.859Z,99.90
2023-03-12T05:36:36.930Z,99.90
2023-03-12T05:39:05.397Z,99.90
2023-03-12T05:41:34.443Z,99.90
2023-03-12T05:44:11.317Z,99.90
2023-03-12T05:46:38.805Z,99.90
2023-03-12T05:49:06.175Z,99.90
2023-03-12T05:51:34.835Z,99.90
2023-03-12T05:54:03.168Z,99.90
2023-03-12T05:56:30.533Z,99.90
2023-03-12T05:58:57.797Z,99.90
2023-03-12T06:01:28.732Z,99.90
2023-03-12T06:03:58.454Z,99.90
2023-03-12T06:06:26.758Z,99.90
2023-03-12T06:08:54.752Z,99.90
2023-03-12T06:11:22.045Z,99.90
2023-03-12T06:13:49.388Z,99.90
2023-03-12T06:16:21.514Z,99.90
2023-03-12T06:18:53.906Z,99.90
2023-03-12T06:21:25.487Z,99.90
2023-03-12T06:23:54.331Z,99.90
2023-03-12T06:26:27.573Z,99.90
2023-03-12T06:28:54.971Z,99.90
2023-03-12T06:31:23.171Z,99.90
2023-03-12T06:33:51.062Z,99.90
2023-03-12T06:36:18.425Z,99.90
2023-03-12T06:38:45.935Z,99.90
2023-03-12T06:41:16.225Z,99.90
2023-03-12T06:43:44.777Z,99.90
2023-03-12T06:46:15.592Z,99.90
2023-03-12T06:48:43.072Z,99.90
2023-03-12T06:51:12.358Z,99.90
2023-03-12T06:53:42.184Z,99.90
2023-03-12T06:56:10.946Z,99.90
2023-03-12T06:58:38.537Z,99.90
2023-03-12T07:01:06.765Z,99.90
2023-03-12T07:03:34.050Z,99.90
2023-03-12T07:06:01.385Z,99.90
2023-03-12T07:08:32.816Z,99.90
2023-03-12T07:11:04.027Z,99.90
2023-03-12T07:13:31.682Z,99.90
2023-03-12T07:15:58.963Z,99.70
2023-03-12T07:18:26.247Z,99.50
2023-03-12T07:20:54.426Z,99.30
2023-03-12T07:23:22.326Z,98.80
2023-03-12T07:25:49.960Z,97.90
2023-03-12T07:28:18.380Z,97.20
2023-03-12T07:30:50.570Z,96.80
2023-03-12T07:33:20.417Z,96.40
2023-03-12T07:35:51.445Z,95.90
2023-03-12T07:38:20.248Z,95.80
2023-03-12T07:40:52.918Z,95.30
2023-03-12T07:43:21.867Z,95.10
2023-03-12T07:45:51.846Z,95.30
2023-03-12T07:48:20.441Z,94.40
2023-03-12T07:50:48.707Z,94.90
2023-03-12T07:53:17.209Z,93.90
2023-03-12T07:55:46.564Z,93.40
2023-03-12T07:58:15.752Z,93.40
2023-03-12T08:00:43.078Z,93.30
2023-03-12T08:03:10.666Z,93.10
2023-03-12T08:05:38.371Z,93.20
2023-03-12T08:08:06.219Z,93.20
2023-03-12T08:10:33.418Z,92.60
2023-03-12T08:13:00.777Z,92.90
2023-03-12T08:15:28.065Z,91.30
2023-03-12T08:17:55.210Z,91.40
2023-03-12T08:20:22.404Z,92.10
2023-03-12T08:22:49.615Z,90.80
2023-03-12T08:25:18.726Z,90.80
2023-03-12T08:27:45.853Z,91.10
2023-03-12T08:30:13.384Z,91.70
2023-03-12T08:32:41.010Z,89.50
2023-03-12T08:35:10.297Z,90.70
2023-03-12T08:37:37.681Z,90.00
2023-03-12T08:40:14.600Z,88.40
2023-03-12T08:42:43.906Z,90.00
2023-03-12T08:45:12.652Z,89.90
2023-03-12T08:47:42.019Z,88.40
2023-03-12T08:50:11.815Z,88.00
2023-03-12T08:52:39.519Z,88.60
2023-03-12T08:55:35.466Z,88.50
2023-03-12T08:58:02.732Z,87.90
2023-03-12T09:00:29.993Z,88.20
2023-03-12T09:02:58.599Z,88.40
2023-03-12T09:05:28.511Z,88.00
2023-03-12T09:07:56.521Z,86.90
2023-03-12T09:10:25.528Z,88.30
2023-03-12T09:12:52.815Z,88.60
2023-03-12T09:15:20.121Z,89.00
2023-03-12T09:17:48.343Z,84.70
2023-03-12T09:20:15.536Z,86.10
2023-03-12T09:22:44.396Z,85.90
2023-03-12T09:25:12.443Z,86.90
2023-03-12T09:27:47.868Z,86.40
2023-03-12T09:30:18.190Z,86.80
2023-03-12T09:32:46.903Z,85.70
2023-03-12T09:35:15.910Z,85.60
2023-03-12T09:37:43.625Z,86.20
2023-03-12T09:40:19.800Z,87.80
2023-03-12T09:43:33.770Z,81.70
2023-03-12T09:46:02.095Z,78.50
2023-03-12T09:48:37.559Z,77.70
2023-03-12T09:51:45.847Z,78.90
2023-03-12T09:54:47.503Z,81.90
2023-03-12T09:57:22.533Z,82.50
2023-03-12T09:59:51.238Z,82.50
2023-03-12T10:02:45.047Z,85.50
2023-03-12T10:05:24.531Z,85.60
2023-03-12T10:08:13.706Z,83.10
2023-03-12T10:11:21.541Z,84.40
2023-03-12T10:14:24.145Z,84.70
2023-03-12T10:16:51.752Z,84.90
2023-03-12T10:19:37.832Z,83.90
2023-03-12T10:22:33.061Z,80.10
2023-03-12T10:25:35.735Z,81.50
2023-03-12T10:28:30.832Z,86.40
2023-03-12T10:31:04.214Z,79.50
2023-03-12T10:33:43.733Z,78.10
2023-03-12T10:36:19.208Z,77.70
2023-03-12T10:38:48.869Z,77.70
2023-03-12T10:41:25.902Z,77.90
2023-03-12T10:43:54.522Z,79.50
2023-03-12T10:46:41.633Z,78.30
2023-03-12T10:49:29.399Z,75.50
2023-03-12T10:52:30.600Z,75.00
2023-03-12T10:54:59.247Z,81.00
2023-03-12T10:57:40.194Z,74.00
2023-03-12T11:00:12.707Z,80.10
2023-03-12T11:02:46.322Z,77.60
2023-03-12T11:05:23.937Z,75.80
2023-03-12T11:07:52.376Z,76.00
2023-03-12T11:10:37.571Z,76.00
2023-03-12T11:13:21.219Z,77.00
2023-03-12T11:15:48.908Z,78.00
2023-03-12T11:18:27.369Z,72.70
2023-03-12T11:21:09.967Z,74.10
2023-03-12T11:23:39.806Z,73.80
2023-03-12T11:26:20.572Z,73.10
2023-03-12T11:28:51.116Z,67.10
2023-03-12T11:31:50.036Z,62.50
2023-03-12T11:34:29.176Z,58.30
2023-03-12T11:37:13.404Z,57.50
2023-03-12T11:39:59.452Z,54.30
2023-03-12T11:43:03.814Z,53.30
2023-03-12T11:46:25.094Z,56.90
2023-03-12T11:49:21.856Z,53.50
2023-03-12T11:52:10.849Z,52.30
2023-03-12T11:54:55.329Z,53.80
2023-03-12T11:57:53.760Z,57.90
2023-03-12T12:00:37.345Z,55.70
2023-03-12T12:03:23.338Z,53.90
2023-03-12T12:06:00.573Z,55.70
2023-03-12T12:09:01.162Z,53.00
2023-03-12T12:12:20.344Z,52.70
2023-03-12T12:15:06.165Z,51.70
2023-03-12T12:17:46.552Z,54.80
2023-03-12T12:20:44.343Z,54.60
2023-03-12T12:23:30.458Z,55.20
2023-03-12T12:26:08.720Z,57.30
2023-03-12T12:29:03.943Z,58.80
2023-03-12T12:31:51.835Z,59.40
2023-03-12T12:34:31.408Z,54.30
2023-03-12T12:37:24.395Z,52.30
2023-03-12T12:40:08.948Z,53.30
2023-03-12T12:42:50.021Z,49.70
2023-03-12T12:45:19.332Z,49.70
2023-03-12T12:48:11.871Z,48.50
2023-03-12T12:50:40.166Z,48.30
2023-03-12T12:53:45.952Z,46.70
2023-03-12T12:56:26.815Z,47.60
2023-03-12T12:59:23.837Z,52.80
2023-03-12T13:01:54.974Z,56.60
2023-03-12T13:04:30.933Z,59.40
2023-03-12T13:07:04.506Z,59.40
2023-03-12T13:09:38.586Z,59.00
2023-03-12T13:12:13.940Z,61.40
2023-03-12T13:14:44.399Z,62.00
2023-03-12T13:17:27.516Z,64.60
2023-03-12T13:20:11.185Z,64.30
2023-03-12T13:22:38.740Z,66.00
2023-03-12T13:25:30.947Z,64.60
2023-03-12T13:28:22.371Z,64.10
2023-03-12T13:30:52.015Z,63.00
2023-03-12T13:33:36.543Z,63.60
2023-03-12T13:36:23.975Z,64.60
2023-03-12T13:38:58.768Z,63.00
2023-03-12T13:41:38.945Z,62.20
2023-03-12T13:44:27.091Z,62.20
2023-03-12T13:46:59.283Z,63.90
2023-03-12T13:49:29.056Z,66.10
2023-03-12T13:52:31.287Z,62.10
2023-03-12T13:55:16.386Z,63.30
2023-03-12T13:57:48.297Z,62.60
2023-03-12T14:00:25.622Z,64.90
2023-03-12T14:02:59.353Z,64.60
2023-03-12T14:05:28.554Z,65.30
2023-03-12T14:08:11.124Z,64.70
2023-03-12T14:11:19.071Z,65.40
2023-03-12T14:14:13.928Z,65.90
2023-03-12T14:16:54.464Z,65.80
2023-03-12T14:19:30.605Z,64.70
2023-03-12T14:22:03.244Z,64.30
2023-03-12T14:24:33.286Z,65.70
2023-03-12T14:27:02.638Z,66.10
2023-03-12T14:29:36.952Z,67.10
2023-03-12T14:32:17.395Z,67.00
2023-03-12T14:34:50.028Z,67.20
2023-03-12T14:37:25.231Z,67.40
2023-03-12T14:39:57.670Z,67.50
2023-03-12T14:42:30.321Z,67.30
2023-03-12T14:45:10.821Z,68.70
2023-03-12T14:47:42.787Z,68.40
2023-03-12T14:50:23.375Z,69.70
2023-03-12T14:52:51.323Z,71.10
2023-03-12T14:55:25.288Z,70.20
2023-03-12T14:58:07.522Z,70.40
2023-03-12T15:00:34.934Z,70.30
2023-03-12T15:03:05.684Z,69.60
2023-03-12T15:05:34.924Z,69.70
2023-03-12T15:08:04.591Z,70.90
2023-03-12T15:10:33.108Z,70.60
2023-03-12T15:13:03.135Z,71.60
2023-03-12T15:15:40.405Z,72.30
2023-03-12T15:18:20.933Z,70.90
2023-03-12T15:20:49.332Z,72.10
2023-03-12T15:23:19.017Z,72.00
2023-03-12T15:25:46.607Z,71.60
2023-03-12T15:28:18.483Z,71.50
2023-03-12T15:30:45.772Z,73.10
2023-03-12T15:33:16.083Z,72.70
2023-03-12T15:36:00.936Z,73.60
2023-03-12T15:38:29.144Z,74.20
2023-03-12T15:41:01.319Z,73.20
2023-03-12T15:43:28.826Z,72.80
2023-03-12T15:46:05.110Z,71.80
2023-03-12T15:48:40.348Z,70.80
2023-03-12T15:51:26.005Z,71.20
2023-03-12T15:54:19.595Z,70.70
2023-03-12T15:56:46.936Z,69.70
2023-03-12T15:59:16.923Z,69.70
2023-03-12T16:01:46.987Z,69.90
2023-03-12T16:04:14.247Z,69.90
2023-03-12T16:06:44.592Z,69.50
2023-03-12T16:09:20.254Z,70.20
2023-03-12T16:11:48.060Z,71.50
2023-03-12T16:14:17.679Z,72.60
2023-03-12T16:16:45.761Z,72.60
2023-03-12T16:19:18.892Z,74.40
2023-03-12T16:21:46.311Z,75.70
2023-03-12T16:24:16.680Z,76.10
2023-03-12T16:26:57.049Z,76.30
2023-03-12T16:29:35.142Z,76.60
2023-03-12T16:32:09.670Z,78.40
2023-03-12T16:34:37.448Z,77.90
2023-03-12T16:37:04.655Z,79.20
2023-03-12T16:39:33.475Z,78.90
2023-03-12T16:42:02.018Z,80.10
2023-03-12T16:44:32.583Z,79.70
2023-03-12T16:47:01.300Z,81.60
2023-03-12T16:49:28.683Z,80.60
2023-03-12T16:51:55.989Z,80.60
2023-03-12T16:54:23.161Z,80.60
2023-03-12T16:56:51.049Z,80.50
2023-03-12T16:59:25.678Z,81.60
2023-03-12T17:01:53.581Z,81.90
2023-03-12T17:04:20.851Z,81.40
2023-03-12T17:06:48.164Z,81.00
2023-03-12T17:09:15.588Z,81.00
2023-03-12T17:11:43.428Z,81.20
2023-03-12T17:14:22.617Z,81.20
2023-03-12T17:16:50.970Z,81.90
2023-03-12T17:19:18.151Z,81.80
2023-03-12T17:21:46.036Z,82.00
2023-03-12T17:24:14.444Z,82.40
2023-03-12T17:26:43.741Z,83.40
2023-03-12T17:29:10.964Z,83.40
2023-03-12T17:31:38.276Z,84.60
2023-03-12T17:34:05.537Z,83.80
2023-03-12T17:36:37.782Z,85.60
2023-03-12T17:39:05.854Z,88.60
2023-03-12T17:41:33.966Z,85.50
2023-03-12T17:44:02.428Z,85.00
2023-03-12T17:46:31.277Z,84.60
2023-03-12T17:48:58.756Z,85.80
2023-03-12T17:51:26.160Z,85.60
2023-03-12T17:53:53.348Z,84.80
2023-03-12T17:56:20.664Z,85.00
2023-03-12T17:58:48.506Z,85.00
2023-03-12T18:01:17.146Z,85.70
2023-03-12T18:03:44.784Z,83.40
2023-03-12T18:06:12.679Z,83.30
2023-03-12T18:08:40.129Z,84.60
2023-03-12T18:11:07.657Z,83.90
2023-03-12T18:13:35.050Z,83.70
2023-03-12T18:16:02.409Z,85.50
2023-03-12T18:18:29.923Z,83.70
2023-03-12T18:20:57.204Z,81.90
2023-03-12T18:23:26.006Z,81.10
2023-03-12T18:25:53.274Z,81.00
2023-03-12T18:28:21.099Z,81.50
2023-03-12T18:30:48.940Z,84.40
2023-03-12T18:33:17.103Z,83.10
2023-03-12T18:35:45.116Z,83.00
2023-03-12T18:38:12.776Z,83.00
2023-03-12T18:40:40.068Z,83.50
2023-03-12T18:43:08.010Z,83.80
2023-03-12T18:45:35.199Z,84.20
2023-03-12T18:48:02.424Z,86.30
2023-03-12T18:50:29.683Z,86.90
2023-03-12T18:52:59.090Z,86.10
2023-03-12T18:55:26.696Z,85.80
2023-03-12T18:57:54.019Z,87.00
2023-03-12T19:00:21.725Z,86.00
2023-03-12T19:02:49.100Z,86.30
2023-03-12T19:05:17.550Z,85.30
2023-03-12T19:07:44.835Z,84.00
2023-03-12T19:10:13.147Z,86.20
2023-03-12T19:12:51.356Z,84.30
2023-03-12T19:15:19.604Z,84.40
2023-03-12T19:17:47.113Z,84.60
2023-03-12T19:20:14.504Z,85.70
2023-03-12T19:22:42.018Z,86.10
2023-03-12T19:25:09.519Z,88.40
2023-03-12T19:27:37.256Z,90.10
2023-03-12T19:30:05.660Z,91.10
2023-03-12T19:32:42.566Z,92.50
2023-03-12T19:35:12.385Z,94.30
2023-03-12T19:37:39.617Z,97.20
2023-03-12T19:40:08.008Z,97.70
2023-03-12T19:42:35.421Z,99.80
2023-03-12T19:45:02.674Z,99.90
2023-03-12T19:47:36.150Z,99.90
2023-03-12T19:50:03.724Z,99.90
2023-03-12T19:52:30.881Z,99.90
2023-03-12T19:55:04.747Z,99.90
2023-03-12T19:57:36.395Z,99.90
2023-03-12T20:00:09.862Z,99.90
2023-03-12T20:02:38.935Z,99.90
2023-03-12T20:05:07.640Z,99.90
2023-03-12T20:07:35.963Z,99.90
2023-03-12T20:10:06.037Z,99.90
2023-03-12T20:12:33.628Z,99.90
2023-03-12T20:15:00.877Z,99.90
2023-03-12T20:17:28.013Z,99.90
2023-03-12T20:19:56.124Z,99.90
2023-03-12T20:22:26.381Z,99.90
2023-03-12T20:24:54.087Z,99.90
2023-03-12T20:27:22.597Z,99.90
2023-03-12T20:29:50.956Z,99.90
2023-03-12T20:32:21.319Z,99.90
2023-03-12T20:34:48.559Z,99.90
2023-03-12T20:37:15.804Z,99.90
2023-03-12T20:39:43.335Z,99.90
2023-03-12T20:42:10.549Z,99.90
2023-03-12T20:44:37.724Z,99.90
2023-03-12T20:47:06.155Z,99.90
2023-03-12T20:49:35.118Z,99.90
2023-03-12T20:52:03.088Z,99.90
2023-03-12T20:54:30.591Z,99.90
2023-03-12T20:56:59.105Z,99.90
2023-03-12T20:59:26.382Z,99.90
2023-03-12T21:01:53.673Z,99.90
2023-03-12T21:04:21.049Z,99.90
2023-03-12T21:06:51.852Z,99.90
2023-03-12T21:09:21.642Z,99.90
2023-03-12T21:11:50.882Z,99.90
2023-03-12T21:14:19.095Z,99.90
2023-03-12T21:16:46.637Z,99.90
2023-03-12T21:19:13.872Z,99.90
2023-03-12T21:21:41.585Z,99.90
2023-03-12T21:24:08.796Z,99.90
2023-03-12T21:26:36.101Z,99.90
2023-03-12T21:29:04.639Z,99.90
2023-03-12T21:31:31.883Z,99.90
2023-03-12T21:33:59.491Z,99.90
2023-03-12T21:36:27.244Z,99.90
2023-03-12T21:38:54.435Z,99.90
2023-03-12T21:41:21.994Z,99.90
2023-03-12T21:43:49.266Z,99.90
2023-03-12T21:46:24.980Z,99.90
2023-03-12T21:48:52.507Z,99.90
2023-03-12T21:51:19.807Z,99.90
2023-03-12T21:53:47.230Z,99.90
2023-03-12T21:56:14.505Z,99.90
2023-03-12T21:58:44.367Z,99.90
2023-03-12T22:01:13.454Z,99.90
2023-03-12T22:03:42.713Z,99.90
2023-03-12T22:06:11.260Z,99.90
2023-03-12T22:08:38.829Z,99.90
2023-03-12T22:11:07.618Z,99.90
2023-03-12T22:13:34.906Z,99.90
2023-03-12T22:16:06.971Z,99.90
2023-03-12T22:18:38.236Z,99.90
2023-03-12T22:21:07.738Z,99.90
2023-03-12T22:23:36.523Z,99.90
2023-03-12T22:26:06.677Z,99.90
2023-03-12T22:28:35.303Z,99.90
2023-03-12T22:31:07.932Z,99.90
2023-03-12T22:33:36.514Z,99.90
2023-03-12T22:36:09.691Z,99.90
2023-03-12T22:38:38.154Z,99.90
2023-03-12T22:41:17.400Z,99.90
2023-03-12T22:43:45.631Z,99.90
2023-03-12T22:46:14.133Z,99.90
2023-03-12T22:48:41.391Z,99.90
2023-03-12T22:51:08.870Z,99.90
2023-03-12T22:53:37.062Z,99.90
2023-03-12T22:56:07.454Z,99.90
2023-03-12T22:58:35.457Z,99.90
2023-03-12T23:01:05.370Z,99.90
2023-03-12T23:03:34.249Z,99.90
2023-03-12T23:06:04.065Z,99.90
2023-03-12T23:08:31.604Z,99.90
2023-03-12T23:11:01.805Z,99.90
2023-03-12T23:13:31.864Z,99.90
2023-03-12T23:16:07.649Z,99.90
2023-03-12T23:18:35.878Z,99.90
2023-03-12T23:21:09.511Z,99.90
2023-03-12T23:23:39.679Z,99.90
2023-03-12T23:26:08.252Z,99.90
2023-03-12T23:28:35.505Z,99.90
2023-03-12T23:31:05.297Z,99.90
2023-03-12T23:33:33.460Z,99.90
2023-03-12T23:36:06.448Z,99.90
2023-03-12T23:38:37.317Z,99.90
2023-03-12T23:41:13.539Z,99.90
2023-03-12T23:43:41.205Z,99.90
2023-03-12T23:46:09.942Z,99.90
2023-03-12T23:48:39.133Z,99.90
2023-03-12T23:51:15.285Z,99.90
2023-03-12T23:53:44.799Z,99.90
2023-03-12T23:56:15.272Z,99.90
2023-03-12T23:58:44.082Z,99.90
